sensor_id;sensor_type;location;lat;lon;timestamp;pressure;altitude;pressure_sealevel;temperature;humidity
33496;BME280;19836;55.812;37.560;2023-03-16T00:00:17;99229.00;;;5.87;66.47
33496;BME280;19836;55.812;37.560;2023-03-16T00:02:43;99229.94;;;5.84;66.22
33496;BME280;19836;55.812;37.560;2023-03-16T00:05:10;99225.38;;;5.91;66.33
33496;BME280;19836;55.812;37.560;2023-03-16T00:07:37;99214.72;;;5.94;66.40
33496;BME280;19836;55.812;37.560;2023-03-16T00:10:05;99219.13;;;5.93;66.09
33496;BME280;19836;55.812;37.560;2023-03-16T00:12:32;99216.28;;;6.04;66.35
33496;BME280;19836;55.812;37.560;2023-03-16T00:15:00;99205.50;;;6.10;66.48
33496;BME280;19836;55.812;37.560;2023-03-16T00:17:27;99212.75;;;6.02;66.16
33496;BME280;19836;55.812;37.560;2023-03-16T00:19:54;99211.97;;;5.97;66.21
33496;BME280;19836;55.812;37.560;2023-03-16T00:22:24;99196.00;;;5.97;66.59
33496;BME280;19836;55.812;37.560;2023-03-16T00:24:51;99191.63;;;5.96;66.35
33496;BME280;19836;55.812;37.560;2023-03-16T00:27:21;99196.88;;;5.99;66.55
33496;BME280;19836;55.812;37.560;2023-03-16T00:29:50;99192.41;;;6.01;66.75
33496;BME280;19836;55.812;37.560;2023-03-16T00:32:21;99185.13;;;6.11;66.81
33496;BME280;19836;55.812;37.560;2023-03-16T00:34:49;99186.06;;;6.08;66.39
33496;BME280;19836;55.812;37.560;2023-03-16T00:37:20;99191.38;;;6.08;66.38
33496;BME280;19836;55.812;37.560;2023-03-16T00:39:50;99182.53;;;6.06;66.51
33496;BME280;19836;55.812;37.560;2023-03-16T00:42:18;99190.53;;;6.04;66.53
33496;BME280;19836;55.812;37.560;2023-03-16T00:44:44;99187.94;;;6.03;66.28
33496;BME280;19836;55.812;37.560;2023-03-16T00:47:11;99205.69;;;6.01;66.72
33496;BME280;19836;55.812;37.560;2023-03-16T00:49:42;99206.56;;;6.03;66.86
33496;BME280;19836;55.812;37.560;2023-03-16T00:52:11;99197.53;;;6.10;66.72
33496;BME280;19836;55.812;37.560;2023-03-16T00:54:43;99199.25;;;6.13;66.59
33496;BME280;19836;55.812;37.560;2023-03-16T00:57:10;99205.28;;;6.21;66.87
33496;BME280;19836;55.812;37.560;2023-03-16T00:59:37;99207.19;;;6.14;66.30
33496;BME280;19836;55.812;37.560;2023-03-16T01:02:05;99214.44;;;6.06;66.61
33496;BME280;19836;55.812;37.560;2023-03-16T01:04:32;99214.41;;;6.07;66.54
33496;BME280;19836;55.812;37.560;2023-03-16T01:06:59;99210.09;;;6.02;66.82
33496;BME280;19836;55.812;37.560;2023-03-16T01:09:25;99208.53;;;5.92;66.81
33496;BME280;19836;55.812;37.560;2023-03-16T01:11:51;99207.69;;;5.90;67.22
33496;BME280;19836;55.812;37.560;2023-03-16T01:14:20;99214.78;;;5.89;67.52
33496;BME280;19836;55.812;37.560;2023-03-16T01:16:47;99208.69;;;5.84;67.36
33496;BME280;19836;55.812;37.560;2023-03-16T01:19:16;99206.09;;;5.83;67.73
33496;BME280;19836;55.812;37.560;2023-03-16T01:21:42;99200.81;;;5.78;67.80
33496;BME280;19836;55.812;37.560;2023-03-16T01:24:11;99207.91;;;5.78;68.01
33496;BME280;19836;55.812;37.560;2023-03-16T01:26:39;99208.78;;;5.77;67.92
33496;BME280;19836;55.812;37.560;2023-03-16T01:29:05;99208.09;;;5.69;68.17
33496;BME280;19836;55.812;37.560;2023-03-16T01:31:31;99216.97;;;5.68;68.46
33496;BME280;19836;55.812;37.560;2023-03-16T01:33:58;99215.16;;;5.70;68.44
33496;BME280;19836;55.812;37.560;2023-03-16T01:36:27;99214.97;;;5.79;68.61
33496;BME280;19836;55.812;37.560;2023-03-16T01:38:59;99222.03;;;5.83;68.56
33496;BME280;19836;55.812;37.560;2023-03-16T01:41:29;99220.25;;;5.82;68.53
33496;BME280;19836;55.812;37.560;2023-03-16T01:43:55;99208.78;;;5.78;68.58
33496;BME280;19836;55.812;37.560;2023-03-16T01:46:26;99211.53;;;5.74;68.78
33496;BME280;19836;55.812;37.560;2023-03-16T01:54:53;99209.84;;;5.70;69.01
33496;BME280;19836;55.812;37.560;2023-03-16T01:57:23;99217.81;;;5.70;69.03
33496;BME280;19836;55.812;37.560;2023-03-16T01:59:55;99215.97;;;5.72;68.90
33496;BME280;19836;55.812;37.560;2023-03-16T02:02:29;99217.81;;;5.68;68.91
33496;BME280;19836;55.812;37.560;2023-03-16T02:05:20;99228.47;;;5.67;68.99
33496;BME280;19836;55.812;37.560;2023-03-16T02:07:51;99223.25;;;5.64;69.03
33496;BME280;19836;55.812;37.560;2023-03-16T02:10:25;99217.06;;;5.62;68.95
33496;BME280;19836;55.812;37.560;2023-03-16T02:12:53;99221.44;;;5.64;69.15
33496;BME280;19836;55.812;37.560;2023-03-16T02:15:20;99224.19;;;5.60;69.20
33496;BME280;19836;55.812;37.560;2023-03-16T02:17:47;99226.97;;;5.55;69.46
33496;BME280;19836;55.812;37.560;2023-03-16T02:20:37;99223.44;;;5.53;69.13
33496;BME280;19836;55.812;37.560;2023-03-16T02:23:09;99232.34;;;5.51;69.37
33496;BME280;19836;55.812;37.560;2023-03-16T02:26:02;99230.63;;;5.47;69.80
33496;BME280;19836;55.812;37.560;2023-03-16T02:31:44;99226.97;;;5.54;69.54
33496;BME280;19836;55.812;37.560;2023-03-16T02:34:12;99221.66;;;5.54;69.30
33496;BME280;19836;55.812;37.560;2023-03-16T02:36:43;99215.44;;;5.55;69.42
33496;BME280;19836;55.812;37.560;2023-03-16T02:39:10;99216.25;;;5.58;69.79
33496;BME280;19836;55.812;37.560;2023-03-16T02:41:45;99217.94;;;5.64;69.35
33496;BME280;19836;55.812;37.560;2023-03-16T02:44:22;99220.59;;;5.64;69.68
33496;BME280;19836;55.812;37.560;2023-03-16T02:46:53;99218.00;;;5.59;69.60
33496;BME280;19836;55.812;37.560;2023-03-16T02:49:31;99212.78;;;5.55;69.80
33496;BME280;19836;55.812;37.560;2023-03-16T02:51:59;99214.63;;;5.51;69.71
33496;BME280;19836;55.812;37.560;2023-03-16T02:54:25;99211.06;;;5.52;69.77
33496;BME280;19836;55.812;37.560;2023-03-16T02:56:54;99206.56;;;5.56;69.97
33496;BME280;19836;55.812;37.560;2023-03-16T02:59:23;99198.53;;;5.59;70.14
33496;BME280;19836;55.812;37.560;2023-03-16T03:01:49;99201.13;;;5.62;70.04
33496;BME280;19836;55.812;37.560;2023-03-16T03:04:16;99199.34;;;5.62;69.90
33496;BME280;19836;55.812;37.560;2023-03-16T03:06:49;99203.75;;;5.63;69.84
33496;BME280;19836;55.812;37.560;2023-03-16T03:09:16;99194.84;;;5.66;70.01
33496;BME280;19836;55.812;37.560;2023-03-16T03:11:44;99201.06;;;5.65;69.97
33496;BME280;19836;55.812;37.560;2023-03-16T03:14:11;99208.13;;;5.66;69.91
33496;BME280;19836;55.812;37.560;2023-03-16T03:16:42;99203.69;;;5.68;70.19
33496;BME280;19836;55.812;37.560;2023-03-16T03:19:12;99196.53;;;5.70;70.01
33496;BME280;19836;55.812;37.560;2023-03-16T03:21:39;99196.44;;;5.74;70.16
33496;BME280;19836;55.812;37.560;2023-03-16T03:24:09;99188.41;;;5.79;69.88
33496;BME280;19836;55.812;37.560;2023-03-16T03:26:36;99184.88;;;5.77;70.09
33496;BME280;19836;55.812;37.560;2023-03-16T03:29:05;99179.56;;;5.77;70.09
33496;BME280;19836;55.812;37.560;2023-03-16T03:31:34;99171.56;;;5.78;70.12
33496;BME280;19836;55.812;37.560;2023-03-16T03:34:00;99187.50;;;5.78;69.95
33496;BME280;19836;55.812;37.560;2023-03-16T03:36:33;99187.53;;;5.80;69.81
33496;BME280;19836;55.812;37.560;2023-03-16T03:38:59;99184.88;;;5.77;69.96
33496;BME280;19836;55.812;37.560;2023-03-16T03:41:31;99179.63;;;5.74;69.76
33496;BME280;19836;55.812;37.560;2023-03-16T03:43:59;99175.31;;;5.68;69.82
33496;BME280;19836;55.812;37.560;2023-03-16T03:46:26;99168.28;;;5.64;70.06
33496;BME280;19836;55.812;37.560;2023-03-16T03:48:52;99166.66;;;5.59;70.37
33496;BME280;19836;55.812;37.560;2023-03-16T03:51:18;99170.16;;;5.59;70.91
33496;BME280;19836;55.812;37.560;2023-03-16T03:53:53;99165.78;;;5.57;70.82
33496;BME280;19836;55.812;37.560;2023-03-16T03:56:36;99186.16;;;5.58;71.08
33496;BME280;19836;55.812;37.560;2023-03-16T03:59:09;99186.13;;;5.59;71.08
33496;BME280;19836;55.812;37.560;2023-03-16T04:02:01;99179.00;;;5.61;70.93
33496;BME280;19836;55.812;37.560;2023-03-16T04:04:37;99181.69;;;5.60;70.95
33496;BME280;19836;55.812;37.560;2023-03-16T04:07:04;99183.50;;;5.58;70.77
33496;BME280;19836;55.812;37.560;2023-03-16T04:09:33;99180.88;;;5.56;70.75
33496;BME280;19836;55.812;37.560;2023-03-16T04:12:03;99203.84;;;5.59;71.34
33496;BME280;19836;55.812;37.560;2023-03-16T04:14:31;99190.63;;;5.56;71.07
33496;BME280;19836;55.812;37.560;2023-03-16T04:17:00;99190.75;;;5.50;70.86
33496;BME280;19836;55.812;37.560;2023-03-16T04:19:27;99174.91;;;5.44;71.08
33496;BME280;19836;55.812;37.560;2023-03-16T04:21:55;99172.25;;;5.44;71.21
33496;BME280;19836;55.812;37.560;2023-03-16T04:24:24;99177.59;;;5.42;71.24
33496;BME280;19836;55.812;37.560;2023-03-16T04:26:51;99182.06;;;5.40;71.26
33496;BME280;19836;55.812;37.560;2023-03-16T04:29:19;99189.97;;;5.43;71.19
33496;BME280;19836;55.812;37.560;2023-03-16T04:31:49;99187.28;;;5.45;71.22
33496;BME280;19836;55.812;37.560;2023-03-16T04:34:17;99190.88;;;5.44;71.26
33496;BME280;19836;55.812;37.560;2023-03-16T04:36:45;99182.91;;;5.42;71.52
33496;BME280;19836;55.812;37.560;2023-03-16T04:39:12;99189.06;;;5.44;71.56
33496;BME280;19836;55.812;37.560;2023-03-16T04:41:38;99197.09;;;5.43;71.46
33496;BME280;19836;55.812;37.560;2023-03-16T04:44:10;99200.69;;;5.39;71.69
33496;BME280;19836;55.812;37.560;2023-03-16T04:46:39;99202.56;;;5.34;71.79
33496;BME280;19836;55.812;37.560;2023-03-16T04:49:09;99194.66;;;5.29;71.32
33496;BME280;19836;55.812;37.560;2023-03-16T04:51:39;99199.94;;;5.31;71.77
33496;BME280;19836;55.812;37.560;2023-03-16T04:54:13;99214.97;;;5.32;71.50
33496;BME280;19836;55.812;37.560;2023-03-16T04:56:43;99210.56;;;5.31;71.63
33496;BME280;19836;55.812;37.560;2023-03-16T04:59:22;99214.09;;;5.33;72.04
33496;BME280;19836;55.812;37.560;2023-03-16T05:01:57;99216.75;;;5.33;71.72
33496;BME280;19836;55.812;37.560;2023-03-16T05:04:27;99222.09;;;5.31;71.70
33496;BME280;19836;55.812;37.560;2023-03-16T05:06:58;99221.16;;;5.32;71.65
33496;BME280;19836;55.812;37.560;2023-03-16T05:09:29;99219.31;;;5.36;72.04
33496;BME280;19836;55.812;37.560;2023-03-16T05:11:56;99228.09;;;5.41;71.93
33496;BME280;19836;55.812;37.560;2023-03-16T05:14:22;99234.28;;;5.43;71.81
33496;BME280;19836;55.812;37.560;2023-03-16T05:16:59;99235.16;;;5.42;71.84
33496;BME280;19836;55.812;37.560;2023-03-16T05:19:25;99228.97;;;5.41;71.87
33496;BME280;19836;55.812;37.560;2023-03-16T05:21:51;99219.22;;;5.42;72.20
33496;BME280;19836;55.812;37.560;2023-03-16T05:32:37;99234.94;;;5.54;71.71
33496;BME280;19836;55.812;37.560;2023-03-16T05:36:28;99237.59;;;5.55;71.32
33496;BME280;19836;55.812;37.560;2023-03-16T05:52:38;99224.25;;;5.57;70.77
33496;BME280;19836;55.812;37.560;2023-03-16T05:55:44;99235.72;;;5.60;71.08
33496;BME280;19836;55.812;37.560;2023-03-16T06:18:15;99229.09;;;5.84;71.44
33496;BME280;19836;55.812;37.560;2023-03-16T06:37:56;99261.25;;;5.67;71.55
33496;BME280;19836;55.812;37.560;2023-03-16T06:40:41;99266.63;;;5.64;71.77
33496;BME280;19836;55.812;37.560;2023-03-16T06:43:07;99265.00;;;5.57;72.05
33496;BME280;19836;55.812;37.560;2023-03-16T06:45:34;99266.94;;;5.48;71.98
33496;BME280;19836;55.812;37.560;2023-03-16T06:48:00;99268.75;;;5.44;72.05
33496;BME280;19836;55.812;37.560;2023-03-16T06:50:27;99267.09;;;5.39;72.37
33496;BME280;19836;55.812;37.560;2023-03-16T06:53:18;99270.72;;;5.35;72.34
33496;BME280;19836;55.812;37.560;2023-03-16T06:55:47;99257.44;;;5.35;72.64
33496;BME280;19836;55.812;37.560;2023-03-16T06:58:15;99263.41;;;5.47;72.99
33496;BME280;19836;55.812;37.560;2023-03-16T07:00:43;99264.19;;;5.54;72.46
33496;BME280;19836;55.812;37.560;2023-03-16T07:03:10;99263.03;;;5.67;72.27
33496;BME280;19836;55.812;37.560;2023-03-16T07:05:39;99265.50;;;5.81;72.62
33496;BME280;19836;55.812;37.560;2023-03-16T07:08:07;99272.44;;;5.88;72.49
33496;BME280;19836;55.812;37.560;2023-03-16T07:14:11;99260.88;;;5.90;72.10
33496;BME280;19836;55.812;37.560;2023-03-16T07:16:41;99257.38;;;5.88;72.03
33496;BME280;19836;55.812;37.560;2023-03-16T07:19:23;99265.38;;;5.87;71.99
33496;BME280;19836;55.812;37.560;2023-03-16T07:21:53;99268.84;;;5.90;72.03
33496;BME280;19836;55.812;37.560;2023-03-16T07:30:41;99269.00;;;5.81;71.77
33496;BME280;19836;55.812;37.560;2023-03-16T07:36:08;99263.66;;;5.84;71.66
33496;BME280;19836;55.812;37.560;2023-03-16T07:45:14;99249.97;;;6.02;71.62
33496;BME280;19836;55.812;37.560;2023-03-16T07:48:07;99249.00;;;6.07;71.41
33496;BME280;19836;55.812;37.560;2023-03-16T07:50:47;99242.63;;;6.14;71.40
33496;BME280;19836;55.812;37.560;2023-03-16T07:53:17;99249.63;;;6.20;71.46
33496;BME280;19836;55.812;37.560;2023-03-16T07:55:49;99238.75;;;6.31;71.24
33496;BME280;19836;55.812;37.560;2023-03-16T07:58:17;99234.09;;;6.42;71.57
33496;BME280;19836;55.812;37.560;2023-03-16T08:00:44;99224.13;;;6.49;71.17
33496;BME280;19836;55.812;37.560;2023-03-16T08:03:11;99227.69;;;6.50;71.12
33496;BME280;19836;55.812;37.560;2023-03-16T08:05:38;99231.25;;;6.49;71.14
33496;BME280;19836;55.812;37.560;2023-03-16T08:08:10;99238.22;;;6.54;71.40
33496;BME280;19836;55.812;37.560;2023-03-16T08:10:37;99241.69;;;6.58;71.38
33496;BME280;19836;55.812;37.560;2023-03-16T08:18:30;99250.94;;;6.80;70.81
33496;BME280;19836;55.812;37.560;2023-03-16T08:27:17;99260.38;;;6.55;70.72
33496;BME280;19836;55.812;37.560;2023-03-16T08:29:58;99249.84;;;6.51;70.77
33496;BME280;19836;55.812;37.560;2023-03-16T08:33:03;99249.75;;;6.53;70.82
33496;BME280;19836;55.812;37.560;2023-03-16T08:35:53;99250.69;;;6.53;70.51
33496;BME280;19836;55.812;37.560;2023-03-16T08:46:08;99245.47;;;6.48;70.70
33496;BME280;19836;55.812;37.560;2023-03-16T08:48:55;99245.53;;;6.45;70.64
33496;BME280;19836;55.812;37.560;2023-03-16T08:51:25;99249.16;;;6.41;70.71
33496;BME280;19836;55.812;37.560;2023-03-16T08:53:52;99246.50;;;6.41;71.14
33496;BME280;19836;55.812;37.560;2023-03-16T08:56:24;99251.78;;;6.43;71.14
33496;BME280;19836;55.812;37.560;2023-03-16T08:58:50;99252.69;;;6.43;71.18
33496;BME280;19836;55.812;37.560;2023-03-16T09:01:21;99249.09;;;6.44;71.36
33496;BME280;19836;55.812;37.560;2023-03-16T09:07:19;99261.78;;;6.33;71.18
33496;BME280;19836;55.812;37.560;2023-03-16T09:17:32;99263.50;;;6.34;71.72
33496;BME280;19836;55.812;37.560;2023-03-16T09:41:40;99257.22;;;6.38;72.03
33496;BME280;19836;55.812;37.560;2023-03-16T09:44:22;99259.75;;;6.44;71.99
33496;BME280;19836;55.812;37.560;2023-03-16T09:46:50;99257.72;;;6.55;72.20
33496;BME280;19836;55.812;37.560;2023-03-16T09:49:19;99247.03;;;6.58;72.03
33496;BME280;19836;55.812;37.560;2023-03-16T09:51:57;99243.44;;;6.59;72.11
33496;BME280;19836;55.812;37.560;2023-03-16T09:56:59;99242.22;;;6.73;71.85
33496;BME280;19836;55.812;37.560;2023-03-16T09:59:26;99248.28;;;6.80;71.85
33496;BME280;19836;55.812;37.560;2023-03-16T10:04:44;99258.78;;;6.86;71.95
33496;BME280;19836;55.812;37.560;2023-03-16T10:12:41;99267.06;;;6.74;72.04
33496;BME280;19836;55.812;37.560;2023-03-16T10:15:22;99261.75;;;6.72;72.05
33496;BME280;19836;55.812;37.560;2023-03-16T10:28:05;99258.97;;;6.77;72.31
33496;BME280;19836;55.812;37.560;2023-03-16T10:36:37;99261.63;;;6.78;72.00
33496;BME280;19836;55.812;37.560;2023-03-16T10:39:07;99268.78;;;6.77;72.53
33496;BME280;19836;55.812;37.560;2023-03-16T10:41:34;99274.75;;;6.86;72.39
33496;BME280;19836;55.812;37.560;2023-03-16T10:44:14;99278.34;;;6.85;72.35
33496;BME280;19836;55.812;37.560;2023-03-16T10:47:31;99269.44;;;6.86;72.55
33496;BME280;19836;55.812;37.560;2023-03-16T10:53:29;99271.25;;;6.86;72.33
33496;BME280;19836;55.812;37.560;2023-03-16T10:59:34;99272.06;;;6.88;72.72
33496;BME280;19836;55.812;37.560;2023-03-16T11:02:22;99267.63;;;6.88;72.61
33496;BME280;19836;55.812;37.560;2023-03-16T11:04:52;99265.78;;;6.90;72.74
33496;BME280;19836;55.812;37.560;2023-03-16T11:07:20;99263.00;;;6.94;72.65
33496;BME280;19836;55.812;37.560;2023-03-16T11:09:53;99265.56;;;7.01;72.42
33496;BME280;19836;55.812;37.560;2023-03-16T11:12:25;99264.66;;;7.00;72.57
33496;BME280;19836;55.812;37.560;2023-03-16T11:15:11;99268.22;;;7.01;72.73
33496;BME280;19836;55.812;37.560;2023-03-16T11:17:44;99276.28;;;6.96;72.48
33496;BME280;19836;55.812;37.560;2023-03-16T11:20:15;99277.25;;;6.93;72.67
33496;BME280;19836;55.812;37.560;2023-03-16T11:22:44;99276.47;;;6.88;72.54
33496;BME280;19836;55.812;37.560;2023-03-16T11:25:39;99283.66;;;6.85;72.88
33496;BME280;19836;55.812;37.560;2023-03-16T11:28:39;99273.00;;;6.85;72.78
33496;BME280;19836;55.812;37.560;2023-03-16T11:33:43;99270.56;;;6.76;73.02
33496;BME280;19836;55.812;37.560;2023-03-16T11:36:45;99280.28;;;6.77;72.92
33496;BME280;19836;55.812;37.560;2023-03-16T11:39:30;99280.28;;;6.77;72.82
33496;BME280;19836;55.812;37.560;2023-03-16T11:44:36;99279.59;;;6.69;72.77
33496;BME280;19836;55.812;37.560;2023-03-16T11:50:16;99292.03;;;6.67;73.17
33496;BME280;19836;55.812;37.560;2023-03-16T11:58:26;99304.69;;;6.57;73.72
33496;BME280;19836;55.812;37.560;2023-03-16T12:01:23;99315.31;;;6.59;73.62
33496;BME280;19836;55.812;37.560;2023-03-16T12:17:17;99312.03;;;6.47;73.89
33496;BME280;19836;55.812;37.560;2023-03-16T12:24:47;99306.38;;;6.62;74.06
33496;BME280;19836;55.812;37.560;2023-03-16T12:27:36;99309.09;;;6.58;73.64
33496;BME280;19836;55.812;37.560;2023-03-16T12:35:54;99314.38;;;6.62;73.54
33496;BME280;19836;55.812;37.560;2023-03-16T12:41:05;99320.63;;;6.59;73.42
33496;BME280;19836;55.812;37.560;2023-03-16T12:43:40;99318.97;;;6.53;73.76
33496;BME280;19836;55.812;37.560;2023-03-16T12:46:14;99325.22;;;6.51;73.70
33496;BME280;19836;55.812;37.560;2023-03-16T12:48:48;99333.22;;;6.49;73.65
33496;BME280;19836;55.812;37.560;2023-03-16T12:51:17;99323.47;;;6.50;74.10
33496;BME280;19836;55.812;37.560;2023-03-16T12:56:17;99335.94;;;6.48;74.33
33496;BME280;19836;55.812;37.560;2023-03-16T12:58:48;99333.38;;;6.42;74.22
33496;BME280;19836;55.812;37.560;2023-03-16T13:01:19;99338.72;;;6.42;74.36
33496;BME280;19836;55.812;37.560;2023-03-16T13:03:58;99341.38;;;6.42;74.33
33496;BME280;19836;55.812;37.560;2023-03-16T13:06:31;99337.88;;;6.40;74.47
33496;BME280;19836;55.812;37.560;2023-03-16T13:08:58;99332.56;;;6.38;74.50
33496;BME280;19836;55.812;37.560;2023-03-16T13:11:26;99347.63;;;6.39;74.83
33496;BME280;19836;55.812;37.560;2023-03-16T13:16:29;99353.00;;;6.38;74.81
33496;BME280;19836;55.812;37.560;2023-03-16T13:18:56;99343.19;;;6.40;74.80
33496;BME280;19836;55.812;37.560;2023-03-16T13:21:37;99336.13;;;6.39;74.73
33496;BME280;19836;55.812;37.560;2023-03-16T13:24:25;99346.69;;;6.42;74.92
33496;BME280;19836;55.812;37.560;2023-03-16T13:27:00;99336.97;;;6.41;74.79
33496;BME280;19836;55.812;37.560;2023-03-16T13:29:29;99334.31;;;6.41;74.78
33496;BME280;19836;55.812;37.560;2023-03-16T13:31:58;99335.25;;;6.38;74.98
33496;BME280;19836;55.812;37.560;2023-03-16T13:34:30;99338.66;;;6.45;74.90
33496;BME280;19836;55.812;37.560;2023-03-16T13:36:58;99339.59;;;6.43;74.72
33496;BME280;19836;55.812;37.560;2023-03-16T13:39:28;99332.56;;;6.40;74.79
33496;BME280;19836;55.812;37.560;2023-03-16T13:41:58;99338.78;;;6.39;74.74
33496;BME280;19836;55.812;37.560;2023-03-16T13:44:26;99340.66;;;6.34;74.87
33496;BME280;19836;55.812;37.560;2023-03-16T13:46:52;99339.84;;;6.31;75.17
33496;BME280;19836;55.812;37.560;2023-03-16T13:49:18;99343.44;;;6.28;75.17
33496;BME280;19836;55.812;37.560;2023-03-16T13:51:45;99335.50;;;6.27;75.53
33496;BME280;19836;55.812;37.560;2023-03-16T13:54:25;99342.66;;;6.23;75.69
33496;BME280;19836;55.812;37.560;2023-03-16T13:56:56;99341.78;;;6.21;75.73
33496;BME280;19836;55.812;37.560;2023-03-16T13:59:22;99342.75;;;6.17;75.47
33496;BME280;19836;55.812;37.560;2023-03-16T14:01:54;99342.84;;;6.14;75.99
33496;BME280;19836;55.812;37.560;2023-03-16T14:04:26;99340.19;;;6.13;75.77
33496;BME280;19836;55.812;37.560;2023-03-16T14:09:23;99343.81;;;6.08;76.16
33496;BME280;19836;55.812;37.560;2023-03-16T14:11:50;99345.63;;;6.08;76.09
33496;BME280;19836;55.812;37.560;2023-03-16T14:14:23;99352.69;;;6.09;76.12
33496;BME280;19836;55.812;37.560;2023-03-16T14:16:51;99338.47;;;6.10;76.29
33496;BME280;19836;55.812;37.560;2023-03-16T14:19:23;99348.28;;;6.08;76.26
33496;BME280;19836;55.812;37.560;2023-03-16T14:21:51;99339.44;;;6.06;76.14
33496;BME280;19836;55.812;37.560;2023-03-16T14:24:27;99343.91;;;6.04;76.16
33496;BME280;19836;55.812;37.560;2023-03-16T14:26:54;99346.69;;;5.98;76.06
33496;BME280;19836;55.812;37.560;2023-03-16T14:29:26;99341.50;;;5.91;76.39
33496;BME280;19836;55.812;37.560;2023-03-16T14:31:53;99335.34;;;5.87;76.69
33496;BME280;19836;55.812;37.560;2023-03-16T14:34:28;99345.94;;;5.90;76.58
33496;BME280;19836;55.812;37.560;2023-03-16T14:37:12;99344.22;;;5.86;76.70
33496;BME280;19836;55.812;37.560;2023-03-16T14:39:38;99345.25;;;5.77;76.63
33496;BME280;19836;55.812;37.560;2023-03-16T14:42:17;99349.66;;;5.77;76.54
33496;BME280;19836;55.812;37.560;2023-03-16T14:44:45;99354.16;;;5.73;76.91
33496;BME280;19836;55.812;37.560;2023-03-16T14:47:26;99357.78;;;5.69;76.81
33496;BME280;19836;55.812;37.560;2023-03-16T14:50:06;99365.84;;;5.65;77.08
33496;BME280;19836;55.812;37.560;2023-03-16T14:52:33;99372.13;;;5.59;76.96
33496;BME280;19836;55.812;37.560;2023-03-16T14:55:10;99375.75;;;5.55;77.02
33496;BME280;19836;55.812;37.560;2023-03-16T14:57:45;99375.69;;;5.57;76.97
33496;BME280;19836;55.812;37.560;2023-03-16T15:00:13;99371.38;;;5.53;76.91
33496;BME280;19836;55.812;37.560;2023-03-16T15:06:52;99383.59;;;5.63;77.13
33496;BME280;19836;55.812;37.560;2023-03-16T15:09:37;99386.19;;;5.64;76.95
33496;BME280;19836;55.812;37.560;2023-03-16T15:12:13;99390.66;;;5.64;76.82
33496;BME280;19836;55.812;37.560;2023-03-16T15:14:39;99385.44;;;5.58;76.53
33496;BME280;19836;55.812;37.560;2023-03-16T15:17:23;99396.13;;;5.55;77.00
33496;BME280;19836;55.812;37.560;2023-03-16T15:19:49;99398.84;;;5.50;76.90
33496;BME280;19836;55.812;37.560;2023-03-16T15:22:22;99397.19;;;5.43;76.91
33496;BME280;19836;55.812;37.560;2023-03-16T15:24:49;99390.13;;;5.41;77.16
33496;BME280;19836;55.812;37.560;2023-03-16T15:27:41;99392.78;;;5.42;76.94
33496;BME280;19836;55.812;37.560;2023-03-16T15:30:24;99398.09;;;5.41;77.20
33496;BME280;19836;55.812;37.560;2023-03-16T15:32:50;99403.44;;;5.39;77.02
33496;BME280;19836;55.812;37.560;2023-03-16T15:35:17;99406.97;;;5.40;77.34
33496;BME280;19836;55.812;37.560;2023-03-16T15:37:45;99406.09;;;5.39;77.17
33496;BME280;19836;55.812;37.560;2023-03-16T15:40:15;99412.31;;;5.38;77.26
33496;BME280;19836;55.812;37.560;2023-03-16T15:42:42;99410.41;;;5.48;77.18
33496;BME280;19836;55.812;37.560;2023-03-16T15:45:12;99415.75;;;5.45;77.33
33496;BME280;19836;55.812;37.560;2023-03-16T15:47:38;99420.97;;;5.51;77.23
33496;BME280;19836;55.812;37.560;2023-03-16T15:50:06;99428.13;;;5.46;76.69
33496;BME280;19836;55.812;37.560;2023-03-16T15:52:35;99420.25;;;5.41;76.84
33496;BME280;19836;55.812;37.560;2023-03-16T15:55:03;99430.88;;;5.40;76.74
33496;BME280;19836;55.812;37.560;2023-03-16T15:57:43;99443.25;;;5.41;77.03
33496;BME280;19836;55.812;37.560;2023-03-16T16:00:23;99436.19;;;5.40;77.09
33496;BME280;19836;55.812;37.560;2023-03-16T16:03:52;99439.69;;;5.42;77.14
33496;BME280;19836;55.812;37.560;2023-03-16T16:06:27;99449.44;;;5.43;76.95
33496;BME280;19836;55.812;37.560;2023-03-16T16:21:21;99481.38;;;5.37;76.96
33496;BME280;19836;55.812;37.560;2023-03-16T16:23:49;99492.00;;;5.38;76.77
33496;BME280;19836;55.812;37.560;2023-03-16T16:26:24;99495.56;;;5.37;76.56
33496;BME280;19836;55.812;37.560;2023-03-16T16:28:50;99502.72;;;5.31;77.04
33496;BME280;19836;55.812;37.560;2023-03-16T16:31:19;99486.88;;;5.25;76.90
33496;BME280;19836;55.812;37.560;2023-03-16T16:33:47;99496.69;;;5.18;76.94
33496;BME280;19836;55.812;37.560;2023-03-16T16:36:15;99500.28;;;5.14;76.96
33496;BME280;19836;55.812;37.560;2023-03-16T16:38:44;99508.22;;;5.16;76.99
33496;BME280;19836;55.812;37.560;2023-03-16T16:41:30;99504.72;;;5.14;76.90
33496;BME280;19836;55.812;37.560;2023-03-16T16:43:58;99514.50;;;5.12;76.89
33496;BME280;19836;55.812;37.560;2023-03-16T16:46:32;99518.91;;;5.13;77.22
33496;BME280;19836;55.812;37.560;2023-03-16T16:49:39;99525.97;;;5.14;77.04
33496;BME280;19836;55.812;37.560;2023-03-16T16:52:18;99534.88;;;5.10;77.11
33496;BME280;19836;55.812;37.560;2023-03-16T16:54:44;99531.38;;;5.05;77.08
33496;BME280;19836;55.812;37.560;2023-03-16T16:57:17;99532.31;;;5.02;77.04
33496;BME280;19836;55.812;37.560;2023-03-16T16:59:47;99538.53;;;5.00;77.33
33496;BME280;19836;55.812;37.560;2023-03-16T17:02:53;99547.38;;;5.02;77.25
33496;BME280;19836;55.812;37.560;2023-03-16T17:06:16;99536.69;;;5.08;77.10
33496;BME280;19836;55.812;37.560;2023-03-16T17:08:46;99536.75;;;5.02;76.71
33496;BME280;19836;55.812;37.560;2023-03-16T17:11:24;99534.97;;;5.01;76.84
33496;BME280;19836;55.812;37.560;2023-03-16T17:13:52;99535.88;;;4.98;76.96
33496;BME280;19836;55.812;37.560;2023-03-16T17:16:20;99547.41;;;4.99;76.80
33496;BME280;19836;55.812;37.560;2023-03-16T17:18:57;99533.28;;;4.94;76.92
33496;BME280;19836;55.812;37.560;2023-03-16T17:21:33;99549.22;;;4.94;77.13
33496;BME280;19836;55.812;37.560;2023-03-16T17:24:02;99543.91;;;4.94;77.03
33496;BME280;19836;55.812;37.560;2023-03-16T17:26:40;99554.53;;;4.94;77.11